YALM weather

Allambie Airport
Northern Territory, Australia

Public forecast

Using degrees Celsius for public forecast. Weather courtesy of forecast.io.

METAR (pilot weather report)

Closest report is Alice Springs Airport, 38.8 nm (71.9 km) NW. Retrieved 2019/03/26 16:00 UTC (14 minutes ago):

YBAS 261600Z AUTO 14007KT 9999 // ////// 18/06 Q1019 RF00.0/000.0

TAF (pilot weather forecast)

Closest forecast is Alice Springs Airport, 38.8 nm (71.9 km) NW. Retrieved 2019/03/26 12:00 UTC (4 hours ago):

TAF YBAS 261122Z 2612/2712 14010KT CAVOK FM262300 14014KT CAVOK FM271100 12008KT CAVOK